x

East Dellwood (46207) Wave Buoy

7:00am - Sat 25th Apr 2015 All times are PDT. -7 hours from GMT.

  • Sig Wave height 5.2ft
  • Peak Period 9s
  • Wind
    16mph, 18mph gusts
  • Sea Temp 50°f
  • Air Temp 49°f
  • Sea Pressure 1012.8mb
  • East Dellwood
  • East Dellwood

More Historic Weather Station data

Upgrade to MSW Pro to gain access to the past 30 days of data for over 8000 Wavebouys and Weather Stations around the globe.

Join Pro

Comparision Forecast

View Surf forecast
   
Sat 04/25 7:00am 5ft 9s 16 18 mph 1012.8mb 50f 49f
6:00am 5.5ft 10s 13 18 mph 1012.6mb 50f 49f
5:00am 5.5ft 10s 16 18 mph 1012.4mb 50f 49f
4:00am 6ft 9s 13 18 mph 1012.4mb 50f 49f
3:00am 6.5ft 9s 13 16 mph 1012.3mb 50f 49f
2:00am 7ft 10s 13 16 mph 1012.1mb 50f 49f
1:00am 7ft 10s 11 16 mph 1012.1mb 50f 49f
12:00am 6.5ft 10s 11 13 mph 1012.1mb 50f 49f
Fri 04/24 11:00pm 8ft 10s 11 13 mph 1012.1mb 50f 49f
10:00pm 7.5ft 11s 11 13 mph 1011.8mb 50f 49f
9:00pm 7.5ft 11s 11 16 mph 1011.3mb 50f 48f
8:00pm 6.5ft 11s 11 16 mph 1011.1mb 50f 48f
7:00pm 7ft 12s 11 13 mph 1010.7mb 50f 48f
6:00pm 6.5ft 12s 9 13 mph 1010.5mb 50f 48f
5:00pm 7ft 11s 11 16 mph 1010.3mb 50f 48f
4:00pm 8ft 12s 11 13 mph 1010.1mb 51f 48f
3:00pm 8ft 11s 9 11 mph 1009.8mb 50f 48f
2:00pm 8ft 11s 9 13 mph 1009.5mb 51f 48f
1:00pm 8ft 11s 7 9 mph 1009.2mb 50f 47f
12:00pm 9.5ft 12s 9 13 mph 1008.9mb 50f 47f
11:00am 10ft 11s 11 13 mph 1008.5mb 50f 47f
10:00am 10.5ft 11s 9 11 mph 1008.1mb 50f 47f
9:00am 11ft 12s 11 13 mph 1007.8mb 50f 47f
8:00am 11.5ft 10s 11 16 mph 1007.7mb 50f 46f
7:00am 12ft 12s 9 11 mph 1007.2mb 50f 47f
6:00am 12.5ft 13s 7 11 mph 1007.1mb 50f 46f
5:00am 12.5ft 12s 7 11 mph 1006.8mb 50f 46f
4:00am 12.5ft 14s 7 11 mph 1006.4mb 50f 46f
3:00am 11ft 14s 9 11 mph 1006.3mb 50f 46f
2:00am 12ft 14s 9 11 mph 1006.4mb 50f 46f
1:00am 12ft 15s 7 9 mph 1006.4mb 50f 46f
12:00am 11ft 15s 7 11 mph 1006.4mb 50f 47f
Thu 04/23 11:00pm 12.5ft 14s 4 7 mph 1006.5mb 50f 46f
10:00pm 13.5ft 14s 4 9 mph 1006.2mb 50f 46f
9:00pm 13.5ft 16s 11 18 mph 1005.2mb 50f 45f
8:00pm 16.5ft 16s 9 16 mph 1004.9mb 50f 45f
7:00pm 15.5ft 14s 2 7 mph 1004.6mb 50f 47f
6:00pm 17ft 14s 4 11 mph 1004.3mb 50f 47f
5:00pm 14.5ft 11s 7 11 mph 1004.2mb 50f 47f
4:00pm 13ft 10s 11 13 mph 1004.2mb 50f 46f
3:00pm 12ft 10s 7 9 mph 1004.5mb 50f 46f
2:00pm 12ft 10s 9 13 mph 1004.6mb 50f 46f
1:00pm 11ft 10s 11 16 mph 1004.8mb 50f 46f
12:00pm 10ft 10s 13 18 mph 1004.8mb 50f 45f
11:00am 10ft 10s 16 20 mph 1005.1mb 50f 45f
10:00am 9ft 11s 7 9 mph 1005.3mb 50f 45f
9:00am 9ft 10s 25 31 mph 1005.4mb 50f 44f
8:00am 10ft 10s 11 13 mph 1005.8mb 50f 46f
7:00am 10ft 8s 18 20 mph 1005.9mb 50f 46f
6:00am 9ft 10s 13 18 mph 1006.1mb 50f 46f
5:00am 10ft 10s 13 18 mph 1006.2mb 50f 47f
4:00am 9.5ft 8s 16 20 mph 1006.4mb 50f 47f
3:00am 11ft 9s 18 22 mph 1006.3mb 50f 47f
2:00am 10ft 8s 18 25 mph 1006.3mb 50f 48f
1:00am 12ft 8s 18 25 mph 1006.3mb 50f 47f
12:00am 11.5ft 8s 13 16 mph 1006.4mb 50f 46f
Wed 04/22 11:00pm 12ft 7s 29 47 mph 1005.7mb 50f 45f
10:00pm 10.5ft 7s 36 45 mph 1005.8mb 50f 46f
9:00pm 9ft 6s 36 45 mph 1007.7mb 49f 46f
8:00pm 8ft 5s 34 43 mph 1009.7mb 49f 46f
7:00pm 6.5ft 11s 31 36 mph 1011.8mb 49f 46f
6:00pm 6.5ft 10s 27 31 mph 1013.8mb 49f 47f
5:00pm 6.5ft 11s 22 27 mph 1015.6mb 49f 47f
4:00pm 6.5ft 12s 22 27 mph 1017.1mb 49f 46f
3:00pm 7.5ft 11s 18 20 mph 1018.4mb 49f 47f
2:00pm 7.5ft 10s 13 18 mph 1019.6mb 49f 46f
1:00pm 7.5ft 11s 11 13 mph 1020.4mb 49f 47f
12:00pm 8ft 11s 9 11 mph 1021.1mb 49f 46f
11:00am 7ft 11s 9 11 mph 1021.8mb 49f 46f
10:00am 7.5ft 11s 4 7 mph 1022.3mb 49f 46f
9:00am 8ft 11s 9 20 mph 1022.5mb 49f 44f
8:00am 8ft 12s 9 16 mph 1022.5mb 49f 46f
7:00am  -   -  16
mph
1022.3mb - 46f
6:00am 8ft 12s 9 13 mph 1022.1mb 49f 46f
5:00am 8ft 12s 18 20 mph 1022.1mb 49f 47f
4:00am 9ft 12s 18 20 mph 1022.2mb 49f 47f
3:00am 9ft 13s 18 22 mph 1022.3mb 49f 47f
2:00am 10ft 8s 20 22 mph 1022.3mb 49f 47f
1:00am 10ft 9s 20 27 mph 1022.5mb 49f 47f
12:00am 10ft 9s 22 27 mph 1022.2mb 49f 47f
Tue 04/21 11:00pm  -   -  22
mph
- - 47f
10:00pm 10.5ft 10s 25 29 mph 1022.5mb 50f 47f
9:00pm 11ft 12s 25 29 mph 1022.1mb 50f 47f
8:00pm 10ft 12s 25 31 mph 1022mb 49f 47f
7:00pm 10.5ft 12s 27 31 mph 1021.8mb 49f 48f
6:00pm 10ft 12s 25 31 mph 1021.5mb 49f 47f
5:00pm 10.5ft 7s 25 29 mph 1021.3mb 49f 47f
4:00pm  -   -  25
mph
- - -